createdAt,value
2023-01-27T00:00:43.596Z,81.08
2023-01-27T00:03:25.393Z,81.52
2023-01-27T00:05:55.940Z,81.45
2023-01-27T00:08:25.138Z,81.06
2023-01-27T00:11:18.573Z,81.32
2023-01-27T00:13:46.834Z,81.52
2023-01-27T00:16:15.778Z,81.33
2023-01-27T00:18:45.580Z,81.95
2023-01-27T00:21:33.213Z,81.26
2023-01-27T00:24:19.855Z,81.65
2023-01-27T00:26:48.872Z,81.79
2023-01-27T00:29:18.033Z,81.49
2023-01-27T00:32:04.441Z,81.95
2023-01-27T00:34:33.749Z,81.55
2023-01-27T00:37:04.135Z,82.02
2023-01-27T00:39:35.467Z,81.16
2023-01-27T00:42:04.442Z,81.51
2023-01-27T00:44:33.613Z,81.74
2023-01-27T00:47:02.515Z,81.45
2023-01-27T00:49:31.715Z,82.05
2023-01-27T00:52:00.633Z,81.87
2023-01-27T00:54:31.349Z,81.41
2023-01-27T00:57:00.180Z,81.50
2023-01-27T00:59:29.345Z,81.08
2023-01-27T01:01:58.340Z,81.46
2023-01-27T01:04:27.627Z,81.38
2023-01-27T01:06:56.534Z,81.64
2023-01-27T01:09:26.698Z,81.18
2023-01-27T01:11:57.060Z,81.33
2023-01-27T01:14:26.286Z,81.56
2023-01-27T01:16:56.304Z,81.66
2023-01-27T01:19:25.535Z,81.34
2023-01-27T01:21:54.379Z,81.00
2023-01-27T01:24:23.614Z,81.04
2023-01-27T01:26:53.047Z,81.51
2023-01-27T01:29:23.657Z,81.33
2023-01-27T01:31:52.889Z,80.90
2023-01-27T01:34:22.042Z,81.24
2023-01-27T01:36:51.891Z,81.14
2023-01-27T01:39:21.235Z,80.78
2023-01-27T01:41:50.121Z,80.92
2023-01-27T01:44:28.658Z,81.26
2023-01-27T01:46:57.720Z,81.00
2023-01-27T01:49:33.747Z,81.15
2023-01-27T01:52:08.170Z,81.20
2023-01-27T01:54:42.323Z,81.17
2023-01-27T01:57:16.660Z,80.96
2023-01-27T01:59:51.617Z,81.44
2023-01-27T02:02:26.324Z,80.93
2023-01-27T02:04:58.671Z,80.90
2023-01-27T02:07:34.598Z,80.44
2023-01-27T02:10:04.090Z,80.96
2023-01-27T02:12:36.876Z,81.19
2023-01-27T02:15:09.526Z,81.75
2023-01-27T02:17:38.714Z,81.75
2023-01-27T02:20:13.568Z,81.55
2023-01-27T02:22:54.339Z,81.62
2023-01-27T02:25:37.713Z,82.05
2023-01-27T02:28:09.313Z,81.72
2023-01-27T02:30:38.898Z,81.31
2023-01-27T02:33:12.544Z,81.13
2023-01-27T02:35:57.894Z,81.38
2023-01-27T02:38:28.615Z,81.08
2023-01-27T02:41:05.349Z,81.02
2023-01-27T02:43:34.352Z,81.44
2023-01-27T02:46:03.995Z,81.51
2023-01-27T02:48:33.057Z,81.78
2023-01-27T02:51:02.589Z,81.85
2023-01-27T02:53:34.073Z,81.31
2023-01-27T02:56:04.904Z,81.79
2023-01-27T02:58:33.914Z,81.13
2023-01-27T03:01:10.446Z,81.75
2023-01-27T03:03:44.065Z,81.65
2023-01-27T03:06:13.794Z,81.41
2023-01-27T03:08:43.217Z,81.20
2023-01-27T03:11:14.552Z,81.24
2023-01-27T03:13:43.526Z,81.34
2023-01-27T03:16:31.080Z,81.58
2023-01-27T03:19:00.063Z,80.51
2023-01-27T03:21:29.237Z,81.41
2023-01-27T03:23:58.287Z,81.23
2023-01-27T03:26:28.862Z,80.72
2023-01-27T03:29:14.104Z,80.90
2023-01-27T03:31:46.193Z,81.08
2023-01-27T03:34:16.039Z,81.10
2023-01-27T03:37:08.728Z,81.45
2023-01-27T03:39:55.359Z,81.02
2023-01-27T03:42:44.464Z,81.43
2023-01-27T03:45:30.820Z,81.60
2023-01-27T03:48:00.206Z,81.81
2023-01-27T03:50:38.076Z,81.07
2023-01-27T03:53:07.966Z,81.76
2023-01-27T03:55:38.506Z,81.54
2023-01-27T03:58:19.675Z,81.17
2023-01-27T04:00:51.020Z,81.39
2023-01-27T04:03:39.058Z,81.62
2023-01-27T04:06:26.922Z,81.73
2023-01-27T04:08:56.660Z,81.39
2023-01-27T04:11:43.050Z,81.61
2023-01-27T04:14:15.028Z,81.50
2023-01-27T04:16:44.307Z,82.01
2023-01-27T04:19:14.630Z,81.65
2023-01-27T04:21:43.913Z,82.10
2023-01-27T04:24:22.826Z,81.55
2023-01-27T04:26:55.438Z,81.41
2023-01-27T04:29:28.146Z,82.07
2023-01-27T04:31:58.081Z,82.13
2023-01-27T04:34:27.855Z,81.86
2023-01-27T04:36:57.708Z,81.86
2023-01-27T04:39:27.446Z,82.39
2023-01-27T04:41:57.848Z,82.16
2023-01-27T04:44:28.706Z,81.98
2023-01-27T04:46:57.704Z,82.71
2023-01-27T04:49:27.743Z,83.00
2023-01-27T04:51:56.757Z,82.82
2023-01-27T04:54:25.971Z,82.92
2023-01-27T04:57:00.254Z,83.40
2023-01-27T04:59:30.982Z,83.32
2023-01-27T05:02:00.312Z,83.68
2023-01-27T05:04:29.491Z,84.13
2023-01-27T05:06:58.469Z,83.98
2023-01-27T05:09:27.899Z,84.17
2023-01-27T05:11:56.864Z,83.90
2023-01-27T05:14:26.240Z,84.25
2023-01-27T05:16:56.765Z,84.10
2023-01-27T05:19:26.114Z,84.69
2023-01-27T05:21:54.989Z,84.62
2023-01-27T05:24:24.200Z,84.64
2023-01-27T05:26:53.620Z,85.11
2023-01-27T05:29:22.947Z,84.97
2023-01-27T05:31:51.861Z,85.24
2023-01-27T05:34:22.524Z,85.17
2023-01-27T05:36:51.606Z,85.29
2023-01-27T05:39:20.853Z,85.77
2023-01-27T05:41:50.427Z,85.45
2023-01-27T05:44:19.712Z,85.67
2023-01-27T05:46:48.776Z,85.78
2023-01-27T05:49:18.114Z,85.68
2023-01-27T05:51:48.361Z,85.85
2023-01-27T05:54:17.623Z,85.99
2023-01-27T05:56:46.621Z,86.19
2023-01-27T05:59:15.901Z,86.27
2023-01-27T06:01:44.936Z,85.91
2023-01-27T06:04:15.056Z,86.11
2023-01-27T06:06:43.959Z,86.00
2023-01-27T06:09:14.824Z,86.10
2023-01-27T06:11:43.779Z,85.80
2023-01-27T06:14:12.973Z,86.08
2023-01-27T06:16:43.624Z,86.59
2023-01-27T06:19:13.390Z,86.30
2023-01-27T06:21:42.252Z,86.44
2023-01-27T06:24:13.820Z,86.59
2023-01-27T06:26:42.814Z,86.67
2023-01-27T06:29:12.046Z,86.38
2023-01-27T06:31:41.420Z,86.56
2023-01-27T06:34:10.821Z,86.88
2023-01-27T06:36:39.758Z,86.32
2023-01-27T06:39:09.810Z,86.39
2023-01-27T06:41:40.131Z,86.65
2023-01-27T06:44:09.460Z,86.77
2023-01-27T06:46:38.465Z,86.64
2023-01-27T06:49:07.689Z,86.50
2023-01-27T06:51:36.618Z,86.48
2023-01-27T06:54:06.002Z,86.74
2023-01-27T06:56:34.872Z,86.50
2023-01-27T06:59:05.767Z,86.79
2023-01-27T07:01:35.218Z,86.46
2023-01-27T07:04:04.727Z,86.42
2023-01-27T07:06:34.109Z,86.34
2023-01-27T07:09:03.455Z,86.57
2023-01-27T07:11:32.329Z,86.62
2023-01-27T07:14:02.101Z,86.32
2023-01-27T07:16:32.732Z,86.35
2023-01-27T07:19:02.157Z,86.37
2023-01-27T07:21:31.095Z,86.06
2023-01-27T07:24:00.895Z,86.19
2023-01-27T07:26:29.840Z,86.54
2023-01-27T07:28:59.746Z,86.15
2023-01-27T07:31:28.834Z,86.45
2023-01-27T07:33:59.511Z,86.08
2023-01-27T07:36:28.253Z,86.01
2023-01-27T07:38:57.439Z,86.43
2023-01-27T07:41:26.420Z,86.08
2023-01-27T07:43:55.610Z,86.16
2023-01-27T07:46:27.307Z,86.19
2023-01-27T07:48:58.039Z,85.50
2023-01-27T07:51:26.751Z,85.48
2023-01-27T07:53:55.968Z,86.12
2023-01-27T07:56:25.008Z,85.84
2023-01-27T07:58:56.100Z,85.68
2023-01-27T08:01:25.438Z,85.62
2023-01-27T08:03:55.013Z,85.28
2023-01-27T08:06:25.442Z,85.25
2023-01-27T08:08:54.640Z,85.10
2023-01-27T08:11:23.548Z,85.12
2023-01-27T08:13:53.856Z,85.13
2023-01-27T08:16:22.863Z,84.80
2023-01-27T08:18:53.793Z,84.84
2023-01-27T08:21:25.245Z,84.70
2023-01-27T08:23:58.133Z,84.55
2023-01-27T08:26:27.273Z,84.42
2023-01-27T08:28:56.449Z,84.13
2023-01-27T08:31:25.493Z,83.91
2023-01-27T08:33:55.692Z,83.49
2023-01-27T08:36:26.311Z,83.78
2023-01-27T08:38:56.806Z,83.52
2023-01-27T08:41:27.769Z,83.14
2023-01-27T08:43:57.242Z,83.37
2023-01-27T08:46:26.954Z,83.55
2023-01-27T08:48:56.218Z,82.89
2023-01-27T08:51:26.598Z,82.50
2023-01-27T08:53:55.915Z,82.33
2023-01-27T08:56:25.142Z,82.55
2023-01-27T08:58:54.538Z,82.00
2023-01-27T09:01:24.009Z,82.04
2023-01-27T09:03:53.365Z,82.07
2023-01-27T09:06:22.802Z,81.91
2023-01-27T09:09:11.281Z,81.79
2023-01-27T09:11:43.389Z,81.60
2023-01-27T09:14:13.042Z,81.13
2023-01-27T09:16:41.908Z,81.72
2023-01-27T09:19:11.167Z,81.27
2023-01-27T09:21:40.101Z,81.56
2023-01-27T09:24:11.305Z,81.05
2023-01-27T09:26:40.273Z,81.55
2023-01-27T09:29:09.477Z,81.46
2023-01-27T09:31:38.553Z,81.38
2023-01-27T09:34:08.032Z,80.60
2023-01-27T09:36:44.142Z,80.50
2023-01-27T09:39:16.887Z,79.82
2023-01-27T09:42:08.808Z,79.56
2023-01-27T09:44:55.009Z,79.31
2023-01-27T09:47:47.135Z,79.60
2023-01-27T09:50:38.397Z,79.46
2023-01-27T09:53:29.720Z,79.47
2023-01-27T09:56:05.467Z,79.41
2023-01-27T09:58:46.897Z,79.32
2023-01-27T10:01:26.035Z,79.46
2023-01-27T10:04:11.117Z,79.36
2023-01-27T10:06:53.777Z,78.89
2023-01-27T10:10:00.971Z,79.12
2023-01-27T10:12:44.076Z,78.97
2023-01-27T10:15:25.748Z,78.86
2023-01-27T10:18:08.919Z,78.81
2023-01-27T10:20:46.705Z,78.91
2023-01-27T10:23:26.239Z,78.86
2023-01-27T10:26:03.796Z,78.62
2023-01-27T10:28:35.165Z,78.41
2023-01-27T10:31:09.708Z,78.41
2023-01-27T10:33:49.652Z,78.39
2023-01-27T10:36:26.824Z,78.47
2023-01-27T10:39:10.923Z,78.44
2023-01-27T10:41:51.856Z,78.55
2023-01-27T10:44:42.344Z,78.49
2023-01-27T10:47:16.785Z,78.48
2023-01-27T10:49:51.704Z,78.19
2023-01-27T10:52:25.576Z,78.49
2023-01-27T10:55:00.628Z,78.17
2023-01-27T10:57:36.001Z,78.24
2023-01-27T11:00:41.947Z,78.00
2023-01-27T11:03:10.841Z,78.17
2023-01-27T11:05:44.509Z,77.73
2023-01-27T11:08:16.380Z,77.66
2023-01-27T11:11:03.338Z,77.70
2023-01-27T11:13:34.166Z,77.57
2023-01-27T11:16:07.558Z,77.33
2023-01-27T11:18:39.735Z,77.31
2023-01-27T11:21:13.608Z,76.95
2023-01-27T11:23:45.907Z,76.58
2023-01-27T11:26:26.415Z,76.02
2023-01-27T11:29:02.100Z,76.17
2023-01-27T11:31:41.366Z,76.54
2023-01-27T11:34:17.443Z,76.54
2023-01-27T11:36:49.276Z,76.41
2023-01-27T11:39:20.014Z,76.43
2023-01-27T11:41:53.173Z,75.25
2023-01-27T11:44:25.903Z,75.30
2023-01-27T11:46:57.725Z,75.21
2023-01-27T11:49:31.457Z,75.15
2023-01-27T11:52:05.868Z,75.24
2023-01-27T11:54:42.119Z,75.09
2023-01-27T11:57:20.803Z,74.70
2023-01-27T11:59:52.570Z,74.93
2023-01-27T12:02:32.150Z,74.47
2023-01-27T12:05:05.875Z,73.89
2023-01-27T12:07:47.366Z,73.79
2023-01-27T12:10:28.011Z,73.81
2023-01-27T12:12:58.710Z,73.48
2023-01-27T12:15:30.022Z,73.45
2023-01-27T12:18:04.525Z,73.39
2023-01-27T12:20:38.265Z,73.36
2023-01-27T12:23:22.219Z,73.07
2023-01-27T12:25:56.805Z,73.32
2023-01-27T12:28:30.659Z,73.36
2023-01-27T12:31:06.929Z,72.71
2023-01-27T12:33:41.343Z,72.39
2023-01-27T12:36:16.414Z,71.45
2023-01-27T12:38:53.208Z,71.29
2023-01-27T12:41:26.211Z,70.63
2023-01-27T12:43:57.374Z,70.49
2023-01-27T12:46:27.865Z,71.10
2023-01-27T12:49:10.721Z,70.15
2023-01-27T12:51:43.421Z,70.55
2023-01-27T12:54:18.423Z,70.90
2023-01-27T12:56:47.492Z,70.58
2023-01-27T12:59:19.467Z,70.75
2023-01-27T13:02:01.904Z,70.74
2023-01-27T13:04:33.112Z,70.43
2023-01-27T13:07:09.255Z,70.39
2023-01-27T13:09:46.973Z,70.51
2023-01-27T13:12:21.207Z,70.70
2023-01-27T13:14:54.520Z,70.62
2023-01-27T13:17:36.822Z,70.60
2023-01-27T13:20:17.412Z,70.44
2023-01-27T13:22:48.617Z,70.67
2023-01-27T13:25:22.996Z,70.33
2023-01-27T13:27:57.511Z,71.02
2023-01-27T13:30:34.260Z,70.78
2023-01-27T13:33:19.288Z,70.89
2023-01-27T13:35:59.955Z,71.36
2023-01-27T13:38:32.431Z,70.86
2023-01-27T13:41:07.823Z,70.67
2023-01-27T13:43:42.102Z,70.66
2023-01-27T13:46:18.573Z,70.61
2023-01-27T13:48:50.858Z,70.75
2023-01-27T13:51:23.644Z,70.42
2023-01-27T13:54:00.622Z,71.00
2023-01-27T13:56:47.063Z,70.67
2023-01-27T13:59:38.579Z,70.72
2023-01-27T14:02:31.984Z,70.74
2023-01-27T14:05:30.760Z,70.13
2023-01-27T14:08:15.786Z,70.81
2023-01-27T14:11:01.529Z,70.14
2023-01-27T14:13:43.915Z,70.13
2023-01-27T14:16:19.491Z,70.29
2023-01-27T14:18:54.079Z,70.50
2023-01-27T14:21:40.970Z,70.39
2023-01-27T14:24:24.342Z,70.21
2023-01-27T14:27:01.381Z,70.77
2023-01-27T14:29:40.496Z,70.71
2023-01-27T14:32:22.425Z,70.52
2023-01-27T14:35:16.258Z,70.78
2023-01-27T14:37:53.602Z,70.89
2023-01-27T14:40:29.533Z,70.79
2023-01-27T14:43:12.157Z,71.08
2023-01-27T14:45:48.661Z,70.51
2023-01-27T14:48:38.737Z,70.51
2023-01-27T14:51:16.975Z,70.83
2023-01-27T14:53:59.842Z,70.89
2023-01-27T14:56:40.339Z,70.33
2023-01-27T14:59:17.641Z,70.81
2023-01-27T15:01:56.294Z,70.82
2023-01-27T15:04:36.788Z,70.68
2023-01-27T15:07:14.448Z,71.05
2023-01-27T15:09:56.886Z,70.91
2023-01-27T15:12:48.196Z,70.48
2023-01-27T15:16:05.192Z,70.54
2023-01-27T15:19:06.869Z,70.30
2023-01-27T15:21:58.330Z,70.77
2023-01-27T15:24:54.292Z,70.77
2023-01-27T15:27:23.986Z,70.29
2023-01-27T15:29:54.605Z,70.83
2023-01-27T15:32:27.409Z,70.40
2023-01-27T15:35:36.802Z,70.11
2023-01-27T15:38:34.013Z,69.99
2023-01-27T15:41:09.145Z,70.28
2023-01-27T15:44:02.916Z,69.98
2023-01-27T15:46:36.644Z,70.83
2023-01-27T15:49:13.404Z,70.76
2023-01-27T15:51:42.946Z,70.89
2023-01-27T15:54:18.981Z,70.72
2023-01-27T15:56:53.116Z,70.86
2023-01-27T15:59:26.496Z,70.12
2023-01-27T16:02:15.021Z,70.03
2023-01-27T16:04:44.950Z,70.21
2023-01-27T16:07:26.132Z,70.25
2023-01-27T16:09:55.431Z,70.50
2023-01-27T16:12:37.956Z,70.28
2023-01-27T16:15:35.229Z,70.18
2023-01-27T16:18:41.855Z,70.63
2023-01-27T16:21:38.508Z,70.07
2023-01-27T16:24:16.392Z,70.53
2023-01-27T16:26:51.491Z,70.12
2023-01-27T16:29:31.180Z,70.47
2023-01-27T16:32:05.740Z,69.95
2023-01-27T16:34:45.388Z,70.38
2023-01-27T16:37:23.753Z,69.78
2023-01-27T16:40:00.601Z,69.93
2023-01-27T16:42:33.103Z,70.10
2023-01-27T16:45:10.239Z,70.29
2023-01-27T16:47:44.950Z,70.44
2023-01-27T16:50:34.931Z,70.47
2023-01-27T16:53:06.297Z,70.26
2023-01-27T16:55:35.669Z,70.49
2023-01-27T16:58:04.940Z,70.56
2023-01-27T17:00:36.745Z,69.89
2023-01-27T17:03:10.989Z,70.75
2023-01-27T17:05:44.142Z,70.32
2023-01-27T17:08:20.145Z,70.65
2023-01-27T17:10:52.199Z,70.02
2023-01-27T17:13:33.120Z,70.55
2023-01-27T17:16:05.742Z,70.71
2023-01-27T17:18:51.027Z,70.08
2023-01-27T17:21:32.981Z,70.21
2023-01-27T17:24:15.763Z,70.54
2023-01-27T17:26:49.267Z,70.73
2023-01-27T17:29:22.260Z,70.32
2023-01-27T17:31:52.341Z,70.78
2023-01-27T17:34:23.092Z,70.25
2023-01-27T17:37:15.384Z,70.61
2023-01-27T17:39:45.391Z,70.76
2023-01-27T17:42:15.794Z,70.63
2023-01-27T17:44:44.969Z,71.08
2023-01-27T17:47:16.779Z,70.27
2023-01-27T17:49:47.440Z,70.59
2023-01-27T17:52:22.070Z,70.91
2023-01-27T17:54:52.440Z,70.29
2023-01-27T17:57:24.285Z,71.08
2023-01-27T18:00:01.574Z,70.66
2023-01-27T18:02:33.796Z,70.60
2023-01-27T18:05:05.669Z,70.66
2023-01-27T18:07:36.767Z,70.58
2023-01-27T18:10:24.780Z,70.59
2023-01-27T18:12:55.107Z,70.61
2023-01-27T18:15:49.860Z,70.48
2023-01-27T18:18:24.288Z,70.60
2023-01-27T18:21:05.526Z,70.62
2023-01-27T18:23:37.685Z,70.27
2023-01-27T18:26:14.940Z,70.24
2023-01-27T18:28:45.896Z,70.06
2023-01-27T18:31:19.406Z,70.00
2023-01-27T18:33:57.671Z,70.47
2023-01-27T18:36:29.977Z,70.63
2023-01-27T18:39:00.733Z,71.23
2023-01-27T18:41:35.349Z,70.77
2023-01-27T18:44:04.676Z,71.06
2023-01-27T18:46:33.598Z,71.31
2023-01-27T18:49:03.203Z,70.91
2023-01-27T18:51:32.104Z,71.17
2023-01-27T18:54:02.766Z,70.76
2023-01-27T18:56:31.607Z,71.07
2023-01-27T18:59:00.930Z,71.38
2023-01-27T19:01:30.185Z,70.84
2023-01-27T19:03:59.439Z,71.67
2023-01-27T19:06:28.440Z,71.12
2023-01-27T19:08:57.666Z,71.41
2023-01-27T19:11:28.320Z,71.08
2023-01-27T19:13:57.736Z,71.00
2023-01-27T19:16:27.558Z,71.58
2023-01-27T19:18:57.985Z,70.92
2023-01-27T19:21:27.259Z,71.20
2023-01-27T19:23:56.560Z,71.44
2023-01-27T19:26:27.623Z,70.58
2023-01-27T19:28:58.810Z,71.13
2023-01-27T19:31:27.984Z,70.82
2023-01-27T19:33:57.920Z,71.54
2023-01-27T19:36:31.941Z,70.87
2023-01-27T19:39:11.852Z,71.03
2023-01-27T19:41:42.264Z,71.46
2023-01-27T19:44:11.651Z,71.22
2023-01-27T19:46:41.500Z,71.28
2023-01-27T19:49:16.287Z,71.85
2023-01-27T19:51:45.804Z,72.03
2023-01-27T19:54:15.204Z,71.61
2023-01-27T19:56:46.052Z,71.59
2023-01-27T19:59:15.348Z,72.16
2023-01-27T20:01:44.353Z,71.67
2023-01-27T20:04:13.730Z,71.98
2023-01-27T20:06:42.801Z,71.98
2023-01-27T20:09:12.204Z,72.14
2023-01-27T20:11:42.716Z,72.36
2023-01-27T20:14:15.331Z,72.47
2023-01-27T20:16:44.875Z,72.23
2023-01-27T20:19:16.201Z,72.39
2023-01-27T20:21:46.719Z,72.20
2023-01-27T20:24:17.575Z,72.86
2023-01-27T20:26:47.105Z,72.36
2023-01-27T20:29:17.691Z,73.11
2023-01-27T20:31:46.596Z,73.05
2023-01-27T20:34:16.054Z,72.69
2023-01-27T20:36:45.023Z,72.50
2023-01-27T20:39:14.530Z,72.36
2023-01-27T20:41:43.647Z,73.06
2023-01-27T20:44:13.758Z,72.71
2023-01-27T20:46:44.091Z,72.69
2023-01-27T20:49:13.381Z,72.68
2023-01-27T20:51:42.226Z,73.06
2023-01-27T20:54:13.452Z,73.20
2023-01-27T20:56:42.426Z,72.56
2023-01-27T20:59:11.681Z,72.42
2023-01-27T21:01:40.714Z,72.59
2023-01-27T21:04:11.347Z,73.17
2023-01-27T21:06:40.563Z,72.83
2023-01-27T21:09:10.027Z,72.87
2023-01-27T21:11:38.961Z,73.00
2023-01-27T21:14:08.206Z,72.81
2023-01-27T21:16:37.896Z,73.62
2023-01-27T21:19:07.209Z,72.89
2023-01-27T21:21:37.546Z,73.19
2023-01-27T21:24:08.333Z,72.96
2023-01-27T21:26:38.280Z,72.81
2023-01-27T21:29:07.682Z,73.01
2023-01-27T21:31:36.699Z,72.99
2023-01-27T21:34:06.111Z,72.88
2023-01-27T21:36:36.478Z,73.20
2023-01-27T21:39:06.015Z,72.42
2023-01-27T21:41:52.839Z,72.66
2023-01-27T21:44:41.673Z,72.94
2023-01-27T21:47:13.463Z,72.66
2023-01-27T21:50:04.170Z,72.22
2023-01-27T21:52:37.695Z,72.45
2023-01-27T21:55:09.667Z,72.21
2023-01-27T21:57:38.848Z,72.96
2023-01-27T22:00:10.667Z,72.60
2023-01-27T22:02:43.337Z,72.70
2023-01-27T22:05:13.742Z,72.70
2023-01-27T22:07:44.495Z,72.37
2023-01-27T22:10:17.955Z,72.69
2023-01-27T22:12:47.452Z,71.97
2023-01-27T22:15:18.645Z,72.95
2023-01-27T22:17:47.673Z,72.04
2023-01-27T22:20:18.048Z,72.22
2023-01-27T22:22:48.939Z,72.61
2023-01-27T22:25:19.174Z,72.06
2023-01-27T22:27:48.328Z,72.45
2023-01-27T22:30:19.698Z,72.64
2023-01-27T22:32:49.787Z,72.71
2023-01-27T22:35:20.739Z,71.91
2023-01-27T22:37:52.831Z,72.07
2023-01-27T22:40:22.225Z,72.18
2023-01-27T22:42:51.562Z,71.69
2023-01-27T22:45:21.020Z,71.95
2023-01-27T22:47:50.341Z,72.24
2023-01-27T22:50:20.367Z,71.54
2023-01-27T22:52:50.742Z,71.93
2023-01-27T22:55:20.333Z,71.94
2023-01-27T22:57:49.242Z,71.40
2023-01-27T23:00:19.325Z,71.82
2023-01-27T23:02:48.345Z,71.64
2023-01-27T23:05:17.871Z,72.07
2023-01-27T23:07:50.104Z,72.46
2023-01-27T23:10:19.811Z,72.48
2023-01-27T23:12:49.029Z,71.71
2023-01-27T23:15:18.391Z,71.89
2023-01-27T23:17:48.578Z,72.01
2023-01-27T23:20:18.139Z,72.53
2023-01-27T23:22:47.303Z,72.35
2023-01-27T23:25:17.968Z,71.55
2023-01-27T23:27:46.944Z,71.85
2023-01-27T23:30:16.333Z,71.27
2023-01-27T23:32:45.803Z,71.46
2023-01-27T23:35:15.346Z,71.39
2023-01-27T23:37:44.463Z,71.71
2023-01-27T23:40:14.496Z,71.78
2023-01-27T23:42:44.742Z,71.58
2023-01-27T23:45:14.410Z,71.33
2023-01-27T23:47:43.550Z,70.99
2023-01-27T23:50:13.128Z,72.00
2023-01-27T23:52:42.174Z,71.92
2023-01-27T23:55:12.800Z,71.42
2023-01-27T23:57:43.561Z,71.10
